Latest Coastal Weather Observations for Hobart

IDT60701

Issued at 11:35 am EST Thursday 31 July 2014 (issued every 10 minutes, with the page automatically refreshed every 10 minutes)

About coastal observations | Map of coastal stations | Coastal observations for TAS | Marine services | Other Formats
Station Details ID: 094029 Name: HOBART (ELLERSLIE ROAD) Lat: -42.89 Lon: 147.33 Height: 50.5 m
Data from the previous 72 hours. | See also: Recent months at Hobart
Date/Time
EST
Temp

°C
Wind Pressure Rain
since 9am
mm
Weather Cloud Vis
km
Sea
Height
m
Swell
Dir
 
Speed
knots
Gust
knots
hPa Trend Height
m
Period
s
Dir
31/11:30am 6.8 SSE 2 4 984.2 - 6.6 - - - - - - -
31/11:00am 6.9 NE 4 5 984.4 - 5.6 - - - - - - -
31/10:30am 6.8 NW 5 8 985.8 - 3.8 - - - - - - -
31/10:00am 7.0 N 7 10 986.3 - 2.2 - - - - - - -
31/09:30am 7.1 NW 7 10 986.6 - 0.8 - - - - - - -
31/09:00am 7.3 N 6 8 986.6 - 23.8 Recent precip. - - - - - -
31/08:30am 7.3 NNW 9 13 988.4 - 22.8 - - - - - - -
31/08:00am 7.3 NNW 11 13 988.8 - 22.4 - - - - - - -
31/07:30am 7.7 N 11 15 988.4 - 22.2 - - - - - - -
31/07:00am 7.6 NNW 11 16 989.3 - 22.2 - - - - - - -
31/06:30am 7.5 N 8 12 989.0 - 22.0 - - - - - - -
31/06:00am 7.1 W 7 11 989.9 - 21.6 Recent precip. - - - - - -
31/05:30am 7.3 S 4 7 989.4 - 21.4 - - - - - - -
31/05:00am 7.5 WSW 10 13 990.1 - 21.0 - - - - - - -
31/04:30am 8.5 SW 20 29 988.6 - 19.2 - - - - - - -
31/04:00am 9.7 W 4 6 988.5 - 16.8 - - - - - - -
31/03:30am 10.6 NW 9 13 988.2 - 14.2 - - - - - - -
31/03:00am 11.6 WNW 13 18 988.6 - 14.2 Recent precip. - - - - - -
31/02:30am 11.5 WNW 16 24 989.7 - 13.6 - - - - - - -
31/02:00am 12.5 WNW 10 14 988.4 - 11.2 - - - - - - -
31/01:30am 12.5 NW 18 29 987.7 - 11.0 - - - - - - -
31/01:00am 13.5 WNW 21 36 987.7 - 9.6 - - - - - - -
31/12:30am 12.9 NW 18 31 987.5 - 9.6 - - - - - - -
31/12:00am 13.0 NW 17 27 988.4 - 9.6 - - - - - - -
 
Date/Time
EST
Temp

°C
Wind Pressure Rain
since 9am
mm
Weather Cloud Vis
km
Sea
Height
m
Swell
Dir
 
Speed
knots
Gust
knots
hPa Trend Height
m
Period
s
Dir
30/11:30pm 13.1 NW 18 27 988.9 - 9.6 - - - - - - -
30/11:00pm 13.7 NW 25 44 988.8 - 9.6 - - - - - - -
30/10:30pm 13.4 WNW 24 40 989.3 - 9.6 - - - - - - -
30/10:00pm 13.8 NW 29 47 989.3 - 9.6 - - - - - - -
30/09:30pm 13.1 NW 20 31 989.5 - 9.4 - - - - - - -
30/09:00pm 12.7 NW 24 32 989.8 - 9.4 Recent precip. - - - - - -
30/08:30pm 11.2 NW 13 23 990.8 - 8.6 - - - - - - -
30/08:00pm 12.0 WNW 12 22 991.3 - 6.8 - - - - - - -
30/07:30pm 11.8 WNW 13 22 991.7 - 6.8 - - - - - - -
30/07:00pm 11.8 WNW 17 26 992.1 - 6.8 - - - - - - -
30/06:30pm 11.9 WNW 15 21 992.3 - 6.8 - - - - - - -
30/06:00pm 11.8 WNW 16 26 993.1 - 6.8 Recent precip. - - - - - -
30/05:30pm 11.3 WNW 11 15 992.9 - 6.2 - - - - - - -
30/05:00pm 11.8 WNW 13 20 992.9 - 5.6 - - - - - - -
30/04:30pm 11.5 WNW 14 22 992.5 - 5.6 - - - - - - -
30/04:00pm 11.7 WNW 16 25 993.0 - 4.8 - - - - - - -
30/03:30pm 11.2 WNW 15 22 992.4 - 4.8 - - - - - - -
30/03:00pm 11.1 WNW 18 26 992.7 - 4.4 Recent precip. - - - - - -
30/02:30pm 10.9 NW 17 27 992.9 - 4.2 - - - - - - -
30/02:00pm 10.7 NW 16 23 993.6 - 3.8 - - - - - - -
30/01:30pm 10.8 NW 16 29 994.1 - 2.8 - - - - - - -
30/01:00pm 11.4 NW 19 29 994.3 - 1.8 - - - - - - -
30/12:30pm 12.6 NW 23 40 993.8 - 1.0 - - - - - - -
30/12:00pm 12.4 NW 22 35 993.8 - 1.0 Recent precip. - - - - - -
30/11:30am 11.7 NW 26 37 994.1 - 0.8 - - - - - - -
30/11:00am 11.7 NW 25 34 995.0 - 0.8 - - - - - - -
30/10:30am 10.9 WNW 19 36 994.9 - 0.8 - - - - - - -
30/10:00am 10.3 NW 24 36 995.3 - 0.6 - - - - - - -
30/09:30am 11.2 WNW 20 33 995.2 - 0.0 - - - - - - -
30/09:00am 10.5 NW 22 33 995.1 - 15.4 - - - - - - -
30/08:30am 9.5 NW 24 34 995.2 - 15.4 - - - - - - -
30/08:00am 9.4 WNW 20 31 995.3 - 15.4 - - - - - - -
30/07:30am 9.4 NW 21 34 995.3 - 15.4 - - - - - - -
30/07:00am 9.3 NW 16 25 995.1 - 15.4 - - - - - - -
30/06:30am 9.0 NW 17 25 995.5 - 15.4 - - - - - - -
30/06:00am 8.9 NW 16 23 996.3 - 15.4 - - - - - - -
30/05:30am 9.3 NW 13 20 996.2 - 15.4 - - - - - - -
30/05:00am 9.5 WNW 16 26 996.4 - 15.4 - - - - - - -
30/04:30am 10.0 WNW 16 26 996.2 - 15.4 - - - - - - -
30/04:00am 9.8 WNW 12 16 995.8 - 15.4 - - - - - - -
30/03:30am 8.7 NW 12 20 995.0 - 15.4 - - - - - - -
30/03:00am 8.7 WNW 15 28 994.7 - 15.4 Rain - - - - - -
30/02:30am 8.5 WNW 15 31 993.9 - 15.2 - - - - - - -
30/02:00am 9.1 WNW 20 37 993.0 - 14.8 - - - - - - -
30/01:30am 9.8 WNW 20 33 992.3 - 14.8 - - - - - - -
30/01:00am 8.7 W 22 37 992.1 - 14.6 - - - - - - -
30/12:30am 8.3 NW 16 23 991.4 - 13.6 - - - - - - -
30/12:00am 9.0 W 14 23 991.0 - 13.0 Rain - - - - - -
 
Date/Time
EST
Temp

°C
Wind Pressure Rain
since 9am
mm
Weather Cloud Vis
km
Sea
Height
m
Swell
Dir
 
Speed
knots
Gust
knots
hPa Trend Height
m
Period
s
Dir
29/11:30pm 8.8 NW 14 22 989.4 - 12.6 - - - - - - -
29/11:00pm 10.7 WNW 29 45 989.3 - 12.2 - - - - - - -
29/10:30pm 11.3 NW 14 26 989.0 - 12.0 - - - - - - -
29/10:00pm 11.5 WNW 14 23 989.0 - 12.0 - - - - - - -
29/09:30pm 10.8 WNW 18 35 988.4 - 12.0 - - - - - - -
29/09:00pm 9.8 NW 16 24 987.8 - 11.8 Rain - - - - - -
29/08:30pm 11.0 WNW 18 31 987.8 - 11.4 - - - - - - -
29/08:00pm 11.9 NW 15 26 986.4 - 11.0 - - - - - - -
29/07:30pm 11.3 NNW 12 27 986.6 - 11.0 - - - - - - -
29/07:00pm 10.8 WNW 9 14 986.1 - 11.0 - - - - - - -
29/06:30pm 11.7 WNW 21 33 986.1 - 11.0 - - - - - - -
29/06:00pm 11.2 NW 19 30 986.0 - 11.0 Rain - - - - - -
29/05:30pm 10.7 NNW 12 25 984.2 - 9.6 - - - - - - -
29/05:00pm 10.4 NW 11 16 985.2 - 9.4 - - - - - - -
29/04:30pm 9.9 NNW 11 18 984.4 - 6.4 - - - - - - -
29/04:00pm 10.2 NNW 11 18 985.2 - 5.8 - - - - - - -
29/03:30pm 10.2 NW 11 18 985.4 - 5.4 - - - - - - -
29/03:00pm 10.4 NW 17 23 986.1 - 5.0 Rain - - - - - -
29/02:30pm 10.8 NW 20 31 986.7 - 4.0 - - - - - - -
29/02:00pm 11.4 NW 23 34 986.8 - 3.6 - - - - - - -
29/01:30pm 12.4 NW 22 37 986.8 - 3.6 - - - - - - -
29/01:00pm 11.2 NW 19 32 988.4 - 3.4 - - - - - - -
29/12:30pm 9.2 NW 14 25 989.7 - 3.4 - - - - - - -
29/12:00pm 9.8 NW 14 22 990.5 - 2.4 Rain - - - - - -
29/11:30am 10.3 NW 15 22 990.1 - 2.2 - - - - - - -
29/11:00am 11.8 NW 17 28 990.1 - 1.4 - - - - - - -
29/10:30am 12.6 NW 12 20 989.8 - 1.2 - - - - - - -
29/10:00am 11.7 NW 15 21 990.2 - 1.2 - - - - - - -
29/09:30am 12.0 WNW 13 20 990.2 - 0.6 - - - - - - -
29/09:00am 10.5 NW 8 13 990.3 - 4.4 Rain - - - - - -
29/08:30am 9.6 NW 9 14 990.2 - 4.2 - - - - - - -
29/08:00am 9.9 N 10 13 990.8 - 4.0 - - - - - - -
29/07:30am 10.1 NNW 9 13 991.4 - 3.4 - - - - - - -
29/07:00am 10.5 NW 14 23 992.3 - 2.2 - - - - - - -
29/06:30am 11.7 NNW 26 37 990.6 - 0.2 - - - - - - -
29/06:00am 12.2 NNW 25 36 990.7 - 0.0 - - - - - - -
29/05:30am 12.3 NNW 23 36 991.2 - 0.0 - - - - - - -
29/05:00am 12.1 NNW 20 32 991.8 - 0.0 - - - - - - -
29/04:30am 11.8 NNW 19 29 992.7 - 0.0 - - - - - - -
29/04:00am 12.2 NNW 21 29 993.5 - 0.0 - - - - - - -
29/03:30am 12.2 NNW 20 32 994.3 - 0.0 - - - - - - -
29/03:00am 12.1 NNW 12 19 994.7 - 0.0 - - - - - - -
29/02:30am 11.6 N 14 20 995.4 - 0.0 - - - - - - -
29/02:00am 11.6 NNW 12 19 996.1 - 0.0 - - - - - - -
29/01:30am 11.6 NNW 14 26 996.6 - 0.0 - - - - - - -
29/01:00am 11.8 NNW 16 26 996.8 - 0.0 - - - - - - -
29/12:30am 11.8 NW 13 19 997.8 - 0.0 - - - - - - -
29/12:00am 11.9 NW 16 26 998.4 - 0.0 - - - - - - -
 
Date/Time
EST
Temp

°C
Wind Pressure Rain
since 9am
mm
Weather Cloud Vis
km
Sea
Height
m
Swell
Dir
 
Speed
knots
Gust
knots
hPa Trend Height
m
Period
s
Dir
28/11:30pm 11.8 NNW 14 22 998.3 - 0.0 - - - - - - -
28/11:00pm 11.4 NNW 14 23 998.7 - 0.0 - - - - - - -
28/10:30pm 11.8 NW 16 30 998.8 - 0.0 - - - - - - -
28/10:00pm 11.9 NW 17 26 999.5 - 0.0 - - - - - - -
28/09:30pm 11.8 NNW 14 24 999.6 - 0.0 - - - - - - -
28/09:00pm 11.7 NNW 19 26 999.9 - 0.0 - - - - - - -
28/08:30pm 11.7 NNW 14 24 1000.5 - 0.0 - - - - - - -
28/08:00pm 11.7 NNW 13 21 1001.1 - 0.0 - - - - - - -
28/07:30pm 11.4 NW 14 21 1001.0 - 0.0 - - - - - - -
28/07:00pm 12.6 NW 17 29 1001.4 - 0.0 - - - - - - -
28/06:30pm 13.1 NW 18 29 1000.8 - 0.0 - - - - - - -
28/06:00pm 13.3 NW 14 21 1000.6 - 0.0 - - - - - - -
28/05:30pm 13.6 NW 19 31 1000.0 - 0.0 - - - - - - -
28/05:00pm 13.8 NNW 17 27 1000.6 - 0.0 - - - - - - -
28/04:30pm 14.2 NW 17 26 1001.2 - 0.0 - - - - - - -
28/04:00pm 14.8 NNW 19 28 1001.1 - 0.0 - - - - - - -
28/03:30pm 15.2 NW 18 27 1001.1 - 0.0 - - - - - - -
28/03:00pm 16.0 NW 15 24 1001.6 - 0.0 - - - - - - -
28/02:30pm 15.6 NW 19 29 1001.7 - 0.0 - - - - - - -
28/02:00pm 15.8 NW 19 30 1002.0 - 0.0 - - - - - - -
28/01:30pm 15.7 NW 20 33 1002.3 - 0.0 - - - - - - -
28/01:00pm 16.0 NW 15 27 1003.1 - 0.0 - - - - - - -
28/12:30pm 15.9 NW 15 23 1003.5 - 0.0 - - - - - - -
28/12:00pm 15.5 NW 14 21 1004.2 - 0.0 - - - - - - -

Other Formats:

Comma delimited format used in spreadsheet applications
http://www.bom.gov.au/fwo/IDT60701/IDT60701.94970.axf

JavaScript Object Notation format (JSON) in row-major order
http://www.bom.gov.au/fwo/IDT60701/IDT60701.94970.json